Time;durP1;ratioP1;P1;durP2;ratioP2;P2;SDS_P1;SDS_P2;PMS_P1;PMS_P2;Temp;Humidity;BMP_temperature;BMP_pressure;BME280_temperature;BME280_humidity;BME280_pressure;Samples;Min_cycle;Max_cycle;Signal;HPM_P1;HPM_P2
2023/08/17 00:01:19;;;;;;;3.95;2.28;;;;;;;24.16;53.04;101904.88;5007362;28;20030;-66
2023/08/17 00:03:45;;;;;;;4.03;1.85;;;;;;;24.15;53.25;101903.22;5007962;28;20092;-66
2023/08/17 00:06:10;;;;;;;4.07;1.70;;;;;;;24.17;53.19;101906.56;5007487;28;20121;-65
2023/08/17 00:08:36;;;;;;;4.00;1.85;;;;;;;24.16;52.63;101898.72;5007442;28;20031;-66
2023/08/17 00:11:01;;;;;;;4.30;1.90;;;;;;;24.15;53.04;101892.56;5006556;28;20029;-66
2023/08/17 00:13:26;;;;;;;4.50;1.77;;;;;;;24.17;52.64;101903.06;5007656;28;20405;-67
2023/08/17 00:15:52;;;;;;;5.05;2.00;;;;;;;24.15;52.58;101891.69;5007483;28;20499;-66
2023/08/17 00:18:17;;;;;;;4.78;2.20;;;;;;;24.15;53.04;101897.88;5007720;28;20030;-66
2023/08/17 00:20:44;;;;;;;4.15;2.20;;;;;;;24.15;52.75;101897.03;5007403;28;20037;-65
2023/08/17 00:23:09;;;;;;;3.65;1.92;;;;;;;24.13;52.91;101889.16;5007288;28;20033;-66
2023/08/17 00:25:34;;;;;;;3.53;1.65;;;;;;;24.14;52.86;101901.50;5006592;28;20558;-65
2023/08/17 00:28:00;;;;;;;4.70;1.90;;;;;;;24.14;52.53;101895.34;5006937;28;20442;-65
2023/08/17 00:30:25;;;;;;;3.75;2.17;;;;;;;24.14;52.89;101888.19;5007320;28;20271;-66
2023/08/17 00:32:50;;;;;;;3.70;1.87;;;;;;;24.13;53.07;101893.66;5007350;28;20544;-67
2023/08/17 00:35:16;;;;;;;2.88;1.65;;;;;;;24.13;53.00;101888.34;5006951;28;20278;-67
2023/08/17 00:37:41;;;;;;;3.78;1.90;;;;;;;24.12;53.07;101884.84;5007268;28;20034;-66
2023/08/17 00:40:07;;;;;;;5.25;2.08;;;;;;;24.13;52.45;101889.16;5007289;28;20057;-66
2023/08/17 00:42:32;;;;;;;4.15;1.80;;;;;;;24.12;52.57;101887.50;5007286;28;20057;-66
2023/08/17 00:44:57;;;;;;;3.72;2.10;;;;;;;24.12;52.79;101897.31;5007183;28;20077;-67
2023/08/17 00:47:24;;;;;;;4.97;1.90;;;;;;;24.12;52.98;101900.00;5007133;28;20379;-68
2023/08/17 00:49:49;;;;;;;6.57;2.63;;;;;;;24.12;52.71;101900.81;5004310;28;20546;-67
2023/08/17 00:52:15;;;;;;;3.42;1.67;;;;;;;24.11;52.91;101900.97;5006786;28;20113;-67
2023/08/17 00:54:40;;;;;;;4.53;1.70;;;;;;;24.11;52.43;101899.13;5006518;28;20414;-67
2023/08/17 00:57:06;;;;;;;4.47;2.10;;;;;;;24.11;52.73;101901.78;5006703;28;20486;-66
2023/08/17 00:59:32;;;;;;;4.70;2.00;;;;;;;24.10;52.46;101897.47;5006958;28;20429;-67
2023/08/17 01:01:57;;;;;;;3.08;1.90;;;;;;;24.08;52.74;101894.06;5006549;28;20041;-66
2023/08/17 01:04:22;;;;;;;3.85;1.90;;;;;;;24.09;52.40;101901.09;5006807;28;20087;-66
2023/08/17 01:06:48;;;;;;;3.47;1.63;;;;;;;24.08;52.49;101899.41;5006550;28;20038;-65
2023/08/17 01:09:13;;;;;;;4.07;1.70;;;;;;;24.08;52.73;101905.59;5006496;28;20030;-67
2023/08/17 01:11:49;;;;;;;3.23;1.80;;;;;;;24.08;52.91;101904.72;5006313;28;20029;-67
2023/08/17 01:14:43;;;;;;;6.03;2.03;;;;;;;24.07;52.83;101901.25;5006322;28;20287;-66
2023/08/17 01:17:26;;;;;;;4.53;1.90;;;;;;;24.06;52.31;101894.22;5003299;28;20088;-67
2023/08/17 01:19:53;;;;;;;4.10;1.97;;;;;;;24.09;52.76;101895.78;5006229;28;20042;-67
2023/08/17 01:22:22;;;;;;;4.45;2.13;;;;;;;24.07;52.86;101897.75;5005718;28;20026;-66
2023/08/17 01:24:47;;;;;;;4.38;1.90;;;;;;;24.08;52.37;101894.06;5006439;28;20529;-68
2023/08/17 01:27:12;;;;;;;4.00;1.88;;;;;;;24.07;52.34;101895.09;5005985;28;20042;-66
2023/08/17 01:29:38;;;;;;;3.33;1.75;;;;;;;24.06;52.54;101896.88;5006463;28;20378;-65
2023/08/17 01:32:03;;;;;;;2.65;1.60;;;;;;;24.06;52.46;101890.72;5006586;28;20030;-66
2023/08/17 01:34:36;;;;;;;4.40;2.10;;;;;;;24.04;52.31;101890.84;5006154;28;20068;-68
2023/08/17 01:37:07;;;;;;;3.30;1.90;;;;;;;24.04;52.37;101888.19;5006252;28;20080;-67
2023/08/17 01:39:39;;;;;;;3.60;1.80;;;;;;;24.04;52.60;101884.69;5005836;28;20061;-67
2023/08/17 01:42:05;;;;;;;4.13;1.75;;;;;;;24.03;52.73;101883.00;5005914;28;20113;-66
2023/08/17 01:44:30;;;;;;;3.30;1.70;;;;;;;24.03;52.25;101885.66;5005761;28;20156;-65
2023/08/17 01:46:56;;;;;;;5.05;2.25;;;;;;;24.05;52.69;101878.38;5005616;28;20455;-66
2023/08/17 01:49:21;;;;;;;2.92;1.60;;;;;;;24.03;52.63;101877.69;5004851;28;20053;-67
2023/08/17 01:51:47;;;;;;;3.45;1.83;;;;;;;24.02;52.47;101866.19;5004673;28;20081;-66
2023/08/17 01:54:12;;;;;;;4.03;2.00;;;;;;;24.02;52.26;101868.88;5005434;28;20648;-65
2023/08/17 01:56:37;;;;;;;4.18;1.77;;;;;;;24.03;52.61;101878.50;5005636;28;20121;-66
2023/08/17 01:59:03;;;;;;;3.78;1.60;;;;;;;24.03;52.79;101875.03;5005858;28;20042;-65
2023/08/17 02:01:28;;;;;;;5.00;2.15;;;;;;;24.02;52.73;101878.66;5005676;28;20029;-64
2023/08/17 02:03:53;;;;;;;4.10;2.00;;;;;;;24.02;52.58;101879.50;5005572;28;20072;-66
2023/08/17 02:06:19;;;;;;;3.20;1.77;;;;;;;24.02;52.35;101870.66;5005287;28;20389;-65
2023/08/17 02:08:45;;;;;;;4.43;1.98;;;;;;;24.02;52.45;101881.31;5005492;28;20478;-67
2023/08/17 02:11:11;;;;;;;5.13;2.08;;;;;;;24.00;52.34;101881.44;5005346;28;20548;-65
2023/08/17 02:13:37;;;;;;;3.78;1.98;;;;;;;24.01;52.46;101884.97;5005575;28;20065;-64
2023/08/17 02:16:05;;;;;;;3.80;1.80;;;;;;;24.02;52.94;101889.31;5005423;28;20072;-64
2023/08/17 02:18:33;;;;;;;2.88;1.52;;;;;;;24.01;52.62;101888.47;5005533;28;20022;-65
2023/08/17 02:20:58;;;;;;;3.63;1.92;;;;;;;24.00;52.57;101885.94;5005109;28;20028;-65
2023/08/17 02:23:23;;;;;;;3.83;1.75;;;;;;;24.00;52.36;101884.13;5004987;28;20113;-66
2023/08/17 02:25:49;;;;;;;3.92;1.90;;;;;;;24.01;52.69;101885.81;5005561;28;20117;-67
2023/08/17 02:28:14;;;;;;;3.08;1.70;;;;;;;24.00;52.62;101885.94;5005585;28;20462;-68
2023/08/17 02:30:40;;;;;;;4.15;1.95;;;;;;;23.99;52.59;101885.13;5004146;28;20084;-67
2023/08/17 02:33:05;;;;;;;3.95;1.90;;;;;;;24.00;52.20;101896.59;5005232;28;20405;-66
2023/08/17 02:35:30;;;;;;;4.18;1.70;;;;;;;23.98;52.80;101880.75;5007875;28;20045;-66
2023/08/17 02:37:56;;;;;;;3.88;1.70;;;;;;;24.00;52.71;101889.44;5007121;28;20130;-65
2023/08/17 02:40:21;;;;;;;3.17;1.70;;;;;;;23.99;52.65;101884.25;5008747;28;20025;-67
2023/08/17 02:42:46;;;;;;;3.80;1.60;;;;;;;23.98;52.53;101878.09;5008771;28;20057;-67
2023/08/17 02:45:12;;;;;;;3.50;1.60;;;;;;;23.99;52.54;101881.59;5008563;28;20057;-67
2023/08/17 02:47:38;;;;;;;4.25;1.92;;;;;;;23.97;52.29;101873.75;5008297;28;20267;-66
2023/08/17 02:50:03;;;;;;;3.90;1.92;;;;;;;23.97;52.43;101873.75;5008285;28;20041;-66
2023/08/17 02:52:28;;;;;;;3.88;1.63;;;;;;;23.97;52.93;101873.75;5008147;28;20053;-66
2023/08/17 02:54:54;;;;;;;3.58;1.92;;;;;;;23.98;52.81;101874.59;5009326;28;20494;-65
2023/08/17 02:57:20;;;;;;;4.13;1.70;;;;;;;23.96;52.37;101872.09;5008409;28;20026;-67
2023/08/17 02:59:45;;;;;;;3.47;1.60;;;;;;;23.96;52.36;101866.75;5009902;28;20044;-66
2023/08/17 03:02:11;;;;;;;3.33;1.77;;;;;;;23.96;52.68;101865.91;5009502;28;20034;-66
2023/08/17 03:04:36;;;;;;;3.42;1.80;;;;;;;23.95;52.40;101865.06;5009788;28;20125;-67
2023/08/17 03:07:02;;;;;;;4.53;1.80;;;;;;;23.96;52.03;101871.22;5009559;28;20049;-68
2023/08/17 03:09:27;;;;;;;4.00;1.65;;;;;;;23.95;52.60;101870.38;5008665;28;20057;-66
2023/08/17 03:11:52;;;;;;;3.35;1.67;;;;;;;23.94;52.44;101863.41;5008334;28;20478;-68
2023/08/17 03:14:17;;;;;;;2.95;1.58;;;;;;;23.94;52.40;101859.88;5009633;28;20489;-65
2023/08/17 03:16:43;;;;;;;3.13;1.58;;;;;;;23.94;52.12;101859.88;5009952;28;20026;-66
2023/08/17 03:19:10;;;;;;;3.92;1.67;;;;;;;23.94;52.52;101868.72;5010349;28;20121;-66
2023/08/17 03:21:36;;;;;;;3.50;1.60;;;;;;;23.92;52.34;101862.69;5010124;28;20030;-65
2023/08/17 03:24:01;;;;;;;3.22;1.70;;;;;;;23.93;52.00;101864.38;5010284;28;20021;-65
2023/08/17 03:26:27;;;;;;;4.15;1.50;;;;;;;23.94;52.32;101862.53;5009799;28;20030;-67
2023/08/17 03:28:52;;;;;;;3.20;1.58;;;;;;;23.93;52.35;101860.88;5009748;28;20022;-65
2023/08/17 03:31:20;;;;;;;2.55;1.40;;;;;;;23.93;51.93;101866.19;5009207;28;20056;-65
2023/08/17 03:33:46;;;;;;;3.92;1.60;;;;;;;23.91;51.92;101861.00;5008262;28;20472;-65
2023/08/17 03:36:11;;;;;;;2.80;1.50;;;;;;;23.92;52.06;101860.00;5007981;28;20037;-66
2023/08/17 03:38:38;;;;;;;2.72;1.40;;;;;;;23.92;52.33;101865.34;5008300;28;20271;-67
2023/08/17 03:41:04;;;;;;;3.53;1.50;;;;;;;23.90;52.22;101860.16;5007778;28;20502;-68
2023/08/17 03:43:30;;;;;;;3.63;1.60;;;;;;;23.92;52.22;101859.19;5008435;28;20061;-66
2023/08/17 03:45:55;;;;;;;4.65;1.70;;;;;;;23.91;52.23;101858.34;5006974;28;20507;-67
2023/08/17 03:48:22;;;;;;;3.60;1.60;;;;;;;23.90;51.76;101854.81;5007815;28;20030;-66
2023/08/17 03:50:51;;;;;;;3.50;1.60;;;;;;;23.88;51.94;101854.13;5008214;28;20279;-66
2023/08/17 03:53:16;;;;;;;4.15;1.77;;;;;;;23.89;52.11;101861.16;5007915;28;20033;-67
2023/08/17 03:55:46;;;;;;;2.38;1.42;;;;;;;23.89;52.20;101862.94;5008013;28;20044;-66
2023/08/17 03:58:11;;;;;;;4.07;1.83;;;;;;;23.88;52.23;101867.44;5008139;28;20107;-66
2023/08/17 04:00:36;;;;;;;3.40;1.60;;;;;;;23.90;51.88;101869.97;5007798;28;20080;-66
2023/08/17 04:03:02;;;;;;;5.15;1.70;;;;;;;23.89;51.85;101868.28;5007201;28;20286;-68
2023/08/17 04:05:27;;;;;;;3.92;1.88;;;;;;;23.88;51.82;101864.78;5007464;28;20029;-68
2023/08/17 04:07:53;;;;;;;4.00;1.85;;;;;;;23.88;51.62;101878.09;5007860;28;20033;-66
2023/08/17 04:10:18;;;;;;;2.92;1.40;;;;;;;23.89;51.69;101877.13;5007977;28;20117;-68
2023/08/17 04:12:43;;;;;;;3.88;1.58;;;;;;;23.89;51.84;101884.25;5007697;28;20060;-68
2023/08/17 04:15:09;;;;;;;2.95;1.50;;;;;;;23.89;51.76;101884.25;5006471;28;20030;-67
2023/08/17 04:17:34;;;;;;;3.47;1.67;;;;;;;23.88;51.92;101880.75;5007491;28;20033;-66
2023/08/17 04:19:59;;;;;;;4.18;1.63;;;;;;;23.88;51.75;101883.41;5007627;28;20113;-66
2023/08/17 04:22:25;;;;;;;3.60;1.45;;;;;;;23.88;51.96;101886.06;5007553;28;20129;-64
2023/08/17 04:24:50;;;;;;;3.58;1.60;;;;;;;23.88;52.16;101883.41;5006526;28;20034;-66
2023/08/17 04:27:16;;;;;;;4.07;1.80;;;;;;;23.86;52.16;101887.19;5006793;28;20144;-65
2023/08/17 04:29:42;;;;;;;3.40;1.50;;;;;;;23.87;52.02;101889.72;5004825;28;20033;-64
2023/08/17 04:32:07;;;;;;;3.85;1.70;;;;;;;23.87;52.12;101888.88;5005982;28;20478;-65
2023/08/17 04:34:32;;;;;;;3.95;1.70;;;;;;;23.87;51.82;101896.88;5006315;28;20445;-64
2023/08/17 04:36:58;;;;;;;3.83;1.70;;;;;;;23.86;52.19;101889.84;5005115;28;20045;-65
2023/08/17 04:39:23;;;;;;;4.87;1.90;;;;;;;23.85;51.94;101890.84;5006168;28;20052;-65
2023/08/17 04:41:48;;;;;;;3.75;1.70;;;;;;;23.84;51.77;101887.31;5006380;28;20264;-65
2023/08/17 04:44:14;;;;;;;2.85;1.45;;;;;;;23.85;52.29;101890.84;5006901;28;20030;-65
2023/08/17 04:46:39;;;;;;;4.05;1.63;;;;;;;23.85;51.81;101885.53;5006644;28;20124;-65
2023/08/17 04:49:04;;;;;;;2.50;1.40;;;;;;;23.85;52.12;101893.50;5006938;28;20037;-68
2023/08/17 04:51:30;;;;;;;3.63;1.30;;;;;;;23.85;51.80;101888.19;5006492;28;20034;-65
2023/08/17 04:53:55;;;;;;;3.90;1.58;;;;;;;23.84;51.86;101892.63;5002721;28;20045;-66
2023/08/17 04:56:20;;;;;;;2.80;1.42;;;;;;;23.85;51.80;101888.19;5005272;28;20076;-66
2023/08/17 04:58:46;;;;;;;3.70;1.47;;;;;;;23.84;52.11;101887.31;5005791;28;20038;-66
2023/08/17 05:01:11;;;;;;;3.08;1.55;;;;;;;23.83;51.97;101880.34;5005685;28;20624;-67
2023/08/17 05:03:36;;;;;;;4.65;1.70;;;;;;;23.84;51.60;101889.97;5003263;28;20056;-68
2023/08/17 05:06:03;;;;;;;2.85;1.42;;;;;;;23.84;52.04;101889.97;5005283;28;20029;-65
2023/08/17 05:08:28;;;;;;;3.42;1.60;;;;;;;23.84;52.17;101886.50;5005059;28;20042;-67
2023/08/17 05:10:54;;;;;;;4.32;1.60;;;;;;;23.82;51.68;101886.59;5005832;28;20044;-67
2023/08/17 05:13:19;;;;;;;2.53;1.30;;;;;;;23.83;51.87;101883.00;5005822;28;20029;-65
2023/08/17 05:15:44;;;;;;;3.53;1.40;;;;;;;23.84;51.74;101891.81;5005603;28;20180;-67
2023/08/17 05:18:10;;;;;;;3.53;1.70;;;;;;;23.82;51.83;101883.09;5005114;28;20029;-65
2023/08/17 05:20:35;;;;;;;3.40;1.48;;;;;;;23.82;51.61;101885.75;5005171;28;20034;-65
2023/08/17 05:23:01;;;;;;;2.85;1.50;;;;;;;23.82;51.99;101883.09;5004248;28;20045;-66
2023/08/17 05:25:26;;;;;;;3.90;1.60;;;;;;;23.81;51.95;101881.41;5004574;28;20179;-65
2023/08/17 05:27:52;;;;;;;3.03;1.75;;;;;;;23.82;51.92;101880.44;5005586;28;20053;-65
2023/08/17 05:30:17;;;;;;;3.75;1.80;;;;;;;23.81;51.80;101878.75;5006188;28;20036;-67
2023/08/17 05:32:43;;;;;;;4.03;2.03;;;;;;;23.81;51.74;101881.41;5005944;28;20046;-64
2023/08/17 05:35:08;;;;;;;2.88;1.45;;;;;;;23.81;51.70;101881.41;5006215;28;20034;-65
2023/08/17 05:37:33;;;;;;;4.40;1.80;;;;;;;23.81;52.17;101890.22;5006385;28;20045;-67
2023/08/17 05:39:59;;;;;;;4.07;1.67;;;;;;;23.82;52.06;101891.09;5006443;28;20034;-64
2023/08/17 05:42:24;;;;;;;2.90;1.40;;;;;;;23.81;52.21;101884.06;5004541;28;20767;-67
2023/08/17 05:44:49;;;;;;;3.13;1.42;;;;;;;23.80;51.92;101891.22;5005931;28;20133;-66
2023/08/17 05:47:17;;;;;;;2.30;1.30;;;;;;;23.81;51.81;101894.72;5005046;28;20061;-64
2023/08/17 05:49:42;;;;;;;3.72;1.63;;;;;;;23.80;51.77;101891.22;5005917;28;20037;-65
2023/08/17 05:52:08;;;;;;;3.10;1.42;;;;;;;23.79;51.74;101888.69;5005617;28;20033;-66
2023/08/17 05:54:33;;;;;;;3.13;1.50;;;;;;;23.80;52.08;101888.56;5005886;28;20563;-66
2023/08/17 05:56:58;;;;;;;3.13;1.60;;;;;;;23.79;52.13;101888.69;5003515;28;20153;-65
2023/08/17 05:59:24;;;;;;;3.95;1.70;;;;;;;23.80;51.77;101895.69;5005240;28;20066;-67
2023/08/17 06:01:49;;;;;;;3.53;1.63;;;;;;;23.79;52.28;101892.19;5003891;28;20026;-67
2023/08/17 06:04:14;;;;;;;3.58;1.55;;;;;;;23.80;52.13;101904.53;5003369;28;20061;-67
2023/08/17 06:06:40;;;;;;;3.37;1.50;;;;;;;23.78;52.07;101900.31;5004699;28;20046;-66
2023/08/17 06:09:07;;;;;;;5.78;1.60;;;;;;;23.78;52.01;101898.47;5006157;28;20362;-66
2023/08/17 06:11:33;;;;;;;3.60;1.48;;;;;;;23.79;51.96;101896.69;5008211;28;20054;-65
2023/08/17 06:13:58;;;;;;;3.58;1.48;;;;;;;23.81;51.41;101911.50;5009616;28;20152;-64
2023/08/17 06:16:23;;;;;;;4.18;1.70;;;;;;;23.81;51.50;101911.50;5009072;28;20033;-65
2023/08/17 06:18:49;;;;;;;3.95;1.60;;;;;;;23.80;52.13;101915.19;5009181;28;20037;-64
2023/08/17 06:21:15;;;;;;;3.72;1.92;;;;;;;23.82;52.15;101909.72;5009796;28;20529;-67
2023/08/17 06:23:40;;;;;;;4.97;1.90;;;;;;;23.82;52.37;101907.06;5009811;28;20124;-66
2023/08/17 06:26:05;;;;;;;3.30;1.60;;;;;;;23.81;52.41;101905.38;5007984;28;20320;-65
2023/08/17 06:28:30;;;;;;;4.03;1.70;;;;;;;23.82;52.51;101907.88;5008275;28;20040;-66
2023/08/17 06:30:56;;;;;;;3.33;1.70;;;;;;;23.82;52.45;101902.56;5008020;28;20275;-66
2023/08/17 06:33:22;;;;;;;4.05;1.50;;;;;;;23.83;52.14;101900.72;5007797;28;20077;-65
2023/08/17 06:35:48;;;;;;;4.10;1.55;;;;;;;23.83;52.41;101909.63;5008195;28;20394;-67
2023/08/17 06:38:14;;;;;;;3.72;1.80;;;;;;;23.81;52.87;101908.03;5008450;28;20034;-67
2023/08/17 06:40:39;;;;;;;3.38;1.63;;;;;;;23.81;52.64;101916.00;5008128;28;20034;-64
2023/08/17 06:43:04;;;;;;;3.03;1.60;;;;;;;23.82;53.09;101918.53;5008976;28;20037;-66
2023/08/17 06:45:31;;;;;;;3.22;1.60;;;;;;;23.82;52.98;101917.69;5009085;28;20050;-64
2023/08/17 06:47:57;;;;;;;3.20;1.40;;;;;;;23.83;53.15;101911.38;5008804;28;20059;-65
2023/08/17 06:50:22;;;;;;;4.85;1.80;;;;;;;23.83;52.97;101912.28;5008944;28;20409;-66
2023/08/17 06:52:47;;;;;;;3.45;1.70;;;;;;;23.85;52.81;101915.63;5008802;28;20045;-65
2023/08/17 06:55:12;;;;;;;6.15;1.70;;;;;;;23.84;53.23;101916.59;5007820;28;20041;-66
2023/08/17 06:57:38;;;;;;;6.60;1.67;;;;;;;23.84;52.69;101908.63;5007649;28;20042;-66
2023/08/17 07:00:07;;;;;;;4.97;1.70;;;;;;;23.85;53.17;101906.81;5008752;28;20030;-65
2023/08/17 07:02:33;;;;;;;3.83;1.70;;;;;;;23.85;53.08;101907.66;5008450;28;20394;-64
2023/08/17 07:04:58;;;;;;;5.82;2.10;;;;;;;23.85;52.95;101906.81;5008961;28;20030;-66
2023/08/17 07:07:24;;;;;;;6.60;1.95;;;;;;;23.84;53.28;101911.28;5008651;28;20033;-66
2023/08/17 07:09:49;;;;;;;10.18;2.38;;;;;;;23.84;53.29;101908.63;5008291;28;20438;-67
2023/08/17 07:12:14;;;;;;;9.98;2.97;;;;;;;23.85;53.37;101910.31;5006938;28;20034;-65
2023/08/17 07:14:39;;;;;;;7.35;2.03;;;;;;;23.87;52.88;101918.16;5006557;28;20894;-66
2023/08/17 07:17:05;;;;;;;5.50;1.80;;;;;;;23.86;53.50;101909.34;5007085;28;20072;-64
2023/08/17 07:19:30;;;;;;;6.13;2.10;;;;;;;23.87;53.23;101915.50;5007243;28;20030;-63
2023/08/17 07:21:55;;;;;;;9.50;2.00;;;;;;;23.88;53.23;101914.53;5006252;28;20105;-67
2023/08/17 07:24:21;;;;;;;6.15;1.80;;;;;;;23.88;52.81;101917.19;5004270;28;20037;-66
2023/08/17 07:26:46;;;;;;;10.52;1.88;;;;;;;23.89;53.04;101917.06;5007013;28;20084;-67
2023/08/17 07:29:11;;;;;;;8.00;1.80;;;;;;;23.87;53.04;101912.84;5007775;28;20076;-67
2023/08/17 07:31:38;;;;;;;7.20;2.20;;;;;;;23.87;53.47;101910.16;5004231;28;20493;-67
2023/08/17 07:34:07;;;;;;;7.22;2.00;;;;;;;23.92;53.24;101910.59;5005317;28;20897;-68
2023/08/17 07:36:33;;;;;;;6.82;2.10;;;;;;;23.96;53.09;101913.81;5007488;28;20099;-66
2023/08/17 07:38:59;;;;;;;5.53;1.80;;;;;;;23.97;52.80;101923.50;5007405;28;20100;-67
2023/08/17 07:41:24;;;;;;;8.10;1.83;;;;;;;23.98;52.79;101914.53;5006469;28;20462;-69
2023/08/17 07:43:50;;;;;;;9.23;2.15;;;;;;;23.97;52.65;101919.00;5007706;28;20076;-67
2023/08/17 07:46:15;;;;;;;8.35;2.08;;;;;;;23.97;53.50;101923.50;5007065;28;20060;-67
2023/08/17 07:48:40;;;;;;;4.93;1.60;;;;;;;24.01;52.94;101919.59;5007051;28;20049;-65
2023/08/17 07:51:06;;;;;;;10.43;2.28;;;;;;;24.04;52.98;101919.31;5006084;28;20033;-69
2023/08/17 07:53:31;;;;;;;5.75;1.67;;;;;;;24.07;52.42;101922.53;5004523;28;20084;-72
2023/08/17 07:55:56;;;;;;;7.97;2.13;;;;;;;24.07;52.50;101925.19;5007064;28;20034;-68
2023/08/17 07:58:22;;;;;;;9.07;2.03;;;;;;;24.10;52.37;101921.44;5006214;28;20029;-67
2023/08/17 08:00:47;;;;;;;6.20;1.85;;;;;;;24.10;52.61;101929.41;5006833;28;20782;-69
2023/08/17 08:03:14;;;;;;;4.07;1.75;;;;;;;24.07;52.42;101922.53;5006514;28;20036;-66
2023/08/17 08:05:39;;;;;;;7.47;2.17;;;;;;;24.07;52.32;101924.38;5006816;28;20533;-69
2023/08/17 08:08:05;;;;;;;4.45;1.70;;;;;;;24.09;52.54;101927.72;5006478;28;20034;-67
2023/08/17 08:10:30;;;;;;;6.07;1.90;;;;;;;24.08;52.81;101924.22;5004073;28;20037;-65
2023/08/17 08:12:56;;;;;;;5.22;1.60;;;;;;;24.07;52.24;101922.53;5005980;28;20038;-68
2023/08/17 08:15:21;;;;;;;5.20;1.90;;;;;;;24.09;52.70;101919.75;5006744;28;20034;-67
2023/08/17 08:17:47;;;;;;;6.15;1.88;;;;;;;24.12;52.25;101923.97;5006009;28;20038;-67
2023/08/17 08:20:12;;;;;;;8.30;2.00;;;;;;;24.11;52.19;101915.09;5007218;28;20065;-66
2023/08/17 08:22:37;;;;;;;6.65;1.63;;;;;;;24.13;52.64;101910.47;5006827;28;20117;-65
2023/08/17 08:25:03;;;;;;;5.28;1.80;;;;;;;24.15;52.07;101918.31;5006282;28;20104;-61
2023/08/17 08:27:28;;;;;;;5.50;1.58;;;;;;;24.15;52.57;101924.50;5006303;28;20479;-67
2023/08/17 08:29:53;;;;;;;5.68;1.73;;;;;;;24.15;52.51;101921.84;5003014;28;20026;-65
2023/08/17 08:32:36;;;;;;;5.58;1.77;;;;;;;24.15;52.65;101918.31;846531;28;10002908;-64
2023/08/17 08:35:02;;;;;;;3.67;1.65;;;;;;;24.17;52.61;101919.06;3782152;28;10001701;-67
2023/08/17 08:37:27;;;;;;;5.55;1.80;;;;;;;24.17;52.19;101925.22;4986275;28;20030;-65
2023/08/17 08:39:55;;;;;;;6.10;1.85;;;;;;;24.16;52.72;101925.34;4953130;28;20434;-65
2023/08/17 08:42:21;;;;;;;6.20;1.60;;;;;;;24.17;52.36;101927.03;4986501;28;20469;-65
2023/08/17 08:44:47;;;;;;;4.78;1.70;;;;;;;24.18;52.53;101928.69;4986264;28;20061;-66
2023/08/17 08:47:13;;;;;;;5.32;1.60;;;;;;;24.16;52.49;101925.34;4986690;28;20034;-68
2023/08/17 08:50:01;;;;;;;4.34;1.80;;;;;;;24.15;52.36;101921.00;4861330;28;10000899;-66
2023/08/17 08:52:42;;;;;;;5.78;1.70;;;;;;;24.17;52.58;101911.91;3976836;28;10001207;-64
2023/08/17 08:55:29;;;;;;;7.10;2.03;;;;;;;24.21;52.35;101917.78;1194998;28;10022780;-66
2023/08/17 08:57:56;;;;;;;7.63;2.10;;;;;;;24.23;52.07;101914.00;3796667;28;10001059;-65
2023/08/17 09:00:22;;;;;;;5.80;1.95;;;;;;;24.23;52.13;101919.31;5005741;28;20038;-65
2023/08/17 09:02:49;;;;;;;5.57;1.70;;;;;;;24.22;52.60;101909.66;5005882;28;20083;-65
2023/08/17 09:05:15;;;;;;;4.72;1.88;;;;;;;24.24;52.59;101906.84;5005664;28;20125;-64
2023/08/17 09:07:42;;;;;;;6.85;2.17;;;;;;;24.25;52.37;101913.88;5003566;28;20034;-65
2023/08/17 09:10:16;;;;;;;4.55;1.80;;;;;;;24.27;52.19;101910.09;3769969;28;10024377;-65
2023/08/17 09:12:41;;;;;;;4.60;1.73;;;;;;;24.30;52.23;101908.94;515516;28;10002086;-64
2023/08/17 09:15:07;;;;;;;4.03;1.63;;;;;;;24.30;52.28;101905.47;5005608;28;20547;-65
2023/08/17 09:17:36;;;;;;;5.53;1.77;;;;;;;24.30;52.65;101903.63;5005673;28;20138;-64
2023/08/17 09:20:02;;;;;;;4.30;1.70;;;;;;;24.27;52.79;101904.75;5004995;28;20050;-63
2023/08/17 09:22:41;;;;;;;3.80;1.58;;;;;;;24.24;52.60;101902.38;5005733;28;20124;-64
2023/08/17 09:25:10;;;;;;;6.72;1.98;;;;;;;24.27;52.62;101915.41;5004929;28;20109;-64
2023/08/17 09:27:39;;;;;;;7.90;2.25;;;;;;;24.26;52.81;101916.38;5005810;28;20042;-65
2023/08/17 09:30:06;;;;;;;5.10;1.85;;;;;;;24.27;52.36;101915.41;5005762;28;20046;-65
2023/08/17 09:32:32;;;;;;;6.15;2.28;;;;;;;24.26;52.48;101903.06;5005240;28;20061;-63
2023/08/17 09:35:00;;;;;;;5.60;1.88;;;;;;;24.24;52.46;101909.50;5005297;28;20107;-62
2023/08/17 09:37:27;;;;;;;5.40;2.40;;;;;;;24.22;52.45;101906.97;5005042;28;20038;-65
2023/08/17 09:39:53;;;;;;;4.18;1.90;;;;;;;24.24;52.40;101907.69;5005457;28;20038;-65
2023/08/17 09:42:19;;;;;;;5.35;2.03;;;;;;;24.25;52.72;101905.88;5005175;28;20036;-65
2023/08/17 09:44:44;;;;;;;5.18;2.03;;;;;;;24.24;52.60;101907.69;5009117;28;21389;-65
2023/08/17 09:47:10;;;;;;;6.50;1.85;;;;;;;24.21;52.53;101907.97;5008998;28;20121;-67
2023/08/17 09:49:35;;;;;;;7.32;2.17;;;;;;;24.20;52.50;101900.97;5008713;28;20030;-65
2023/08/17 09:52:02;;;;;;;5.60;2.00;;;;;;;24.18;52.30;101908.25;5009634;28;20091;-64
2023/08/17 09:54:30;;;;;;;4.63;2.58;;;;;;;24.17;52.94;101903.91;5009062;28;20113;-65
2023/08/17 09:56:58;;;;;;;5.00;1.88;;;;;;;24.15;52.65;101897.88;5009085;28;20061;-66
2023/08/17 09:59:23;;;;;;;5.75;2.00;;;;;;;24.14;52.80;101901.50;5008398;28;20038;-64
2023/08/17 10:01:51;;;;;;;6.70;2.10;;;;;;;24.14;52.90;101898.03;5008883;28;20040;-63
2023/08/17 10:04:23;;;;;;;4.70;2.00;;;;;;;24.14;52.79;101895.34;3660314;28;10022560;-65
2023/08/17 10:06:59;;;;;;;11.55;3.70;;;;;;;24.17;51.51;101898.56;861147;28;10002130;-68
2023/08/17 10:09:28;;;;;;;9.63;4.10;;;;;;;24.17;50.85;101887.91;5009208;28;20386;-64
2023/08/17 10:12:17;;;;;;;14.31;4.82;;;;;;;24.12;50.44;101884.00;4516482;28;10001335;-63
2023/08/17 10:14:53;;;;;;;8.27;3.83;;;;;;;24.13;50.29;101885.69;515606;28;10002079;-66
2023/08/17 10:17:25;;;;;;;9.05;4.10;;;;;;;24.11;50.30;101875.16;5008394;28;20026;-67
2023/08/17 10:19:59;;;;;;;10.40;4.28;;;;;;;24.08;50.65;101884.28;5009261;28;20034;-65
2023/08/17 10:22:36;;;;;;;10.95;4.75;;;;;;;24.06;50.60;101883.56;5007693;28;20044;-64
2023/08/17 10:25:02;;;;;;;8.73;4.25;;;;;;;24.05;50.77;101873.06;5008329;28;20038;-65
2023/08/17 10:27:28;;;;;;;10.02;3.90;;;;;;;24.04;51.23;101879.38;5006583;28;20040;-65
2023/08/17 10:29:54;;;;;;;11.40;4.75;;;;;;;24.03;51.29;101877.69;5008918;28;20065;-65
2023/08/17 10:32:22;;;;;;;9.30;4.38;;;;;;;24.03;51.13;101875.03;5006769;28;20649;-63
2023/08/17 10:34:48;;;;;;;8.40;3.53;;;;;;;24.03;51.17;101877.69;5007925;28;20065;-66
2023/08/17 10:37:14;;;;;;;10.95;3.63;;;;;;;24.02;51.50;101874.19;5006512;28;20049;-65
2023/08/17 10:39:45;;;;;;;7.72;3.10;;;;;;;23.94;51.85;101874.06;5005807;28;20034;-65
2023/08/17 10:42:11;;;;;;;6.40;3.13;;;;;;;23.97;52.23;101879.06;5005185;28;20525;-63
2023/08/17 10:44:48;;;;;;;6.65;3.15;;;;;;;23.96;52.39;101879.22;5007819;28;20045;-63
2023/08/17 10:47:25;;;;;;;6.72;3.03;;;;;;;23.94;52.58;101875.84;5007019;28;20133;-64
2023/08/17 10:49:55;;;;;;;8.48;3.50;;;;;;;23.93;52.44;101871.53;5006390;28;20041;-65
2023/08/17 10:52:32;;;;;;;7.75;3.45;;;;;;;23.94;52.32;101870.53;5008372;28;20117;-66
2023/08/17 10:55:05;;;;;;;9.55;3.00;;;;;;;23.98;52.56;101874.59;5006797;28;21558;-67
2023/08/17 10:57:32;;;;;;;12.10;3.40;;;;;;;24.02;52.57;101876.00;5008604;28;20073;-64
2023/08/17 11:00:13;;;;;;;7.70;3.50;;;;;;;24.05;52.85;101870.38;5008582;28;20033;-63
2023/08/17 11:02:39;;;;;;;7.78;3.20;;;;;;;24.09;52.66;101866.47;4916258;28;20149;-64
2023/08/17 11:05:05;;;;;;;7.53;2.97;;;;;;;24.12;52.23;101868.03;4999464;28;20470;-64
2023/08/17 11:07:41;;;;;;;9.15;3.33;;;;;;;24.07;52.67;101869.28;5007045;28;20030;-64
2023/08/17 11:10:11;;;;;;;6.97;3.08;;;;;;;24.06;53.08;101872.91;5006663;28;20041;-65
2023/08/17 11:12:36;;;;;;;6.13;3.00;;;;;;;24.11;52.92;101875.16;5006361;28;20617;-66
2023/08/17 11:15:03;;;;;;;6.28;3.10;;;;;;;24.09;53.14;101877.13;5007715;28;20076;-64
2023/08/17 11:17:29;;;;;;;7.28;3.13;;;;;;;24.12;52.61;101876.84;5006417;28;20083;-64
2023/08/17 11:19:58;;;;;;;10.27;3.40;;;;;;;24.12;53.01;101881.34;5008478;28;20052;-66
2023/08/17 11:22:25;;;;;;;5.47;3.13;;;;;;;24.11;52.88;101880.50;5008512;28;20469;-67